nws-alerts: Checking more than four warning/county codes can delay the loading of your pages. You should use a cron job to get the data.
EllijayWeather Station Historical Data
Daily Summary for August 10, 2018 Units:  English    Metric   Both
Daily Weekly Monthly Yearly Custom
  High: Low: Average:
Temperature: 81.3 °F 66.9 °F 72.4 °F
Dew Point: 75.7 °F 65.7 °F 70 °F
Humidity: 97% 77% 92%
Wind Speed: 4mph 0mph 0mph
Wind Gust: 6mph - -
Wind- - West
Pressure: 30.07 in 29.92 in -
Precipitation: 0.03 in    
Historical Graphs
 
 
Tabular Data for August 10, 2018
Time Temperature Dew Point Pressure Wind Wind Speed Wind Gust Humidity Rainfall Rate (Hourly) solar
00:04 67.6 °F 66.4 °F 30.06 in Calm     96% 0 in meteobridge W/m2
00:09 67.6 °F 66.4 °F 30.06 in Calm     96% 0 in meteobridge W/m2
00:14 67.6 °F 66.4 °F 30.06 in Calm     96% 0 in meteobridge W/m2
00:19 67.6 °F 66.4 °F 30.06 in Calm     96% 0 in meteobridge W/m2
00:24 67.6 °F 66.4 °F 30.07 in Calm     96% 0 in meteobridge W/m2
00:29 67.6 °F 66.4 °F 30.07 in Calm     96% 0 in meteobridge W/m2
00:34 67.5 °F 66.2 °F 30.07 in Calm     96% 0 in meteobridge W/m2
00:39 67.5 °F 66.2 °F 30.07 in Calm     96% 0 in meteobridge W/m2
00:44 67.5 °F 66.2 °F 30.07 in Calm     96% 0 in meteobridge W/m2
00:49 67.5 °F 66.2 °F 30.07 in Calm     96% 0 in meteobridge W/m2
00:54 67.5 °F 66.2 °F 30.07 in Calm     96% 0 in meteobridge W/m2
00:59 67.6 °F 66.4 °F 30.07 in Calm     96% 0 in meteobridge W/m2
01:04 67.6 °F 66.4 °F 30.07 in Calm     96% 0 in meteobridge W/m2
01:09 67.6 °F 66.4 °F 30.07 in Calm     96% 0 in meteobridge W/m2
01:14 67.6 °F 66.4 °F 30.07 in Calm     96% 0 in meteobridge W/m2
01:19 67.6 °F 66.4 °F 30.07 in Calm     96% 0 in meteobridge W/m2
01:24 67.6 °F 66.4 °F 30.07 in Calm     96% 0 in meteobridge W/m2
01:29 67.6 °F 66.4 °F 30.07 in Calm     96% 0 in meteobridge W/m2
01:34 67.8 °F 66.6 °F 30.07 in Calm     96% 0 in meteobridge W/m2
01:39 67.8 °F 66.6 °F 30.06 in Calm     96% 0 in meteobridge W/m2
01:44 67.6 °F 66.4 °F 30.06 in Calm     96% 0 in meteobridge W/m2
01:49 67.6 °F 66.4 °F 30.06 in Calm     96% 0 in meteobridge W/m2
01:54 67.6 °F 66.4 °F 30.06 in Calm     96% 0 in meteobridge W/m2
01:59 67.6 °F 66.4 °F 30.06 in Calm     96% 0 in meteobridge W/m2
02:04 67.6 °F 66.4 °F 30.06 in Calm     96% 0 in meteobridge W/m2
02:09 67.6 °F 66.4 °F 30.05 in Calm     96% 0 in meteobridge W/m2
02:14 67.6 °F 66.4 °F 30.06 in Calm     96% 0 in meteobridge W/m2
02:19 67.6 °F 66.4 °F 30.06 in Calm     96% 0 in meteobridge W/m2
02:24 67.6 °F 66.4 °F 30.06 in Calm     96% 0.01 in meteobridge W/m2
02:29 67.6 °F 66.4 °F 30.05 in Calm     96% 0.01 in meteobridge W/m2
02:34 67.6 °F 66.4 °F 30.05 in Calm     96% 0.01 in meteobridge W/m2
02:39 67.6 °F 66.4 °F 30.05 in Calm     96% 0.01 in meteobridge W/m2
02:44 67.6 °F 66.4 °F 30.05 in Calm     96% 0.01 in meteobridge W/m2
02:49 67.5 °F 66.2 °F 30.05 in Calm     96% 0.01 in meteobridge W/m2
02:54 67.5 °F 66.2 °F 30.05 in Calm     96% 0.01 in meteobridge W/m2
02:59 67.3 °F 66 °F 30.05 in Calm     96% 0.01 in meteobridge W/m2
03:04 67.3 °F 66 °F 30.04 in Calm     96% 0.01 in meteobridge W/m2
03:09 67.3 °F 66 °F 30.04 in Calm     96% 0.01 in meteobridge W/m2
03:14 67.3 °F 66 °F 30.04 in Calm     96% 0.01 in meteobridge W/m2
03:19 67.3 °F 66 °F 30.04 in Calm     96% 0.01 in meteobridge W/m2
03:24 67.3 °F 66 °F 30.04 in Calm     96% 0 in meteobridge W/m2
03:29 67.3 °F 66 °F 30.04 in Calm     96% 0 in meteobridge W/m2
03:34 67.3 °F 66 °F 30.04 in Calm     96% 0 in meteobridge W/m2
03:39 67.3 °F 66 °F 30.04 in Calm     96% 0 in meteobridge W/m2
03:44 67.3 °F 66 °F 30.04 in Calm     96% 0 in meteobridge W/m2
03:49 67.5 °F 66.2 °F 30.03 in Calm     96% 0 in meteobridge W/m2
03:54 67.5 °F 66.2 °F 30.04 in Calm     96% 0 in meteobridge W/m2
03:59 67.3 °F 66 °F 30.03 in Calm     96% 0 in meteobridge W/m2
04:04 67.3 °F 66 °F 30.03 in Calm     96% 0 in meteobridge W/m2
04:09 67.3 °F 66 °F 30.03 in Calm     96% 0 in meteobridge W/m2
04:14 67.3 °F 66 °F 30.03 in Calm     96% 0 in meteobridge W/m2
04:19 67.3 °F 66 °F 30.03 in Calm     96% 0 in meteobridge W/m2
04:24 67.5 °F 66.2 °F 30.03 in Calm     96% 0 in meteobridge W/m2
04:29 67.5 °F 66.2 °F 30.03 in Calm     96% 0 in meteobridge W/m2
04:34 67.3 °F 66 °F 30.03 in Calm     96% 0 in meteobridge W/m2
04:39 67.3 °F 66 °F 30.03 in Calm     96% 0 in meteobridge W/m2
04:44 67.3 °F 66 °F 30.03 in Calm     96% 0 in meteobridge W/m2
04:49 67.3 °F 66 °F 30.03 in Calm     96% 0 in meteobridge W/m2
04:54 67.3 °F 66 °F 30.03 in Calm     96% 0 in meteobridge W/m2
04:59 67.3 °F 66 °F 30.03 in Calm     96% 0 in meteobridge W/m2
05:04 67.1 °F 65.8 °F 30.03 in Calm     96% 0 in meteobridge W/m2
05:09 67.1 °F 65.8 °F 30.03 in Calm     96% 0 in meteobridge W/m2
05:14 66.9 °F 65.7 °F 30.03 in Calm     96% 0 in meteobridge W/m2
05:19 66.9 °F 65.7 °F 30.03 in Calm     96% 0 in meteobridge W/m2
05:24 67.1 °F 65.8 °F 30.03 in Calm     96% 0 in meteobridge W/m2
05:29 67.1 °F 65.8 °F 30.03 in Calm     96% 0 in meteobridge W/m2
05:34 67.1 °F 65.8 °F 30.03 in Calm     96% 0 in meteobridge W/m2
05:39 67.1 °F 65.8 °F 30.03 in Calm     96% 0 in meteobridge W/m2
05:44 67.1 °F 65.8 °F 30.03 in Calm     96% 0 in meteobridge W/m2
05:49 67.1 °F 65.8 °F 30.03 in Calm     96% 0 in meteobridge W/m2
05:54 67.1 °F 65.8 °F 30.03 in Calm     96% 0 in meteobridge W/m2
05:59 67.1 °F 65.8 °F 30.03 in Calm     96% 0 in meteobridge W/m2
06:04 67.1 °F 65.8 °F 30.03 in Calm     96% 0 in meteobridge W/m2
06:09 67.3 °F 66 °F 30.04 in Calm     96% 0 in meteobridge W/m2
06:14 67.3 °F 66 °F 30.04 in Calm     96% 0 in meteobridge W/m2
06:19 67.3 °F 66 °F 30.04 in Calm     96% 0 in meteobridge W/m2
06:24 67.3 °F 66 °F 30.04 in Calm     96% 0 in meteobridge W/m2
06:29 67.3 °F 66 °F 30.04 in Calm     96% 0 in meteobridge W/m2
06:34 67.3 °F 66 °F 30.04 in Calm     96% 0 in meteobridge W/m2
06:39 67.3 °F 66 °F 30.04 in Calm     96% 0 in meteobridge W/m2
06:44 67.3 °F 66 °F 30.04 in Calm     96% 0 in meteobridge W/m2
06:49 67.3 °F 66 °F 30.04 in Calm     96% 0 in meteobridge W/m2
06:54 67.3 °F 66 °F 30.04 in Calm     96% 0 in meteobridge W/m2
06:59 67.3 °F 66 °F 30.04 in Calm     96% 0 in meteobridge W/m2
07:04 67.5 °F 66.2 °F 30.04 in Calm     96% 0 in meteobridge W/m2
07:09 67.5 °F 66.2 °F 30.04 in Calm     96% 0 in meteobridge W/m2
07:14 67.5 °F 66.2 °F 30.04 in Calm     96% 0 in meteobridge W/m2
07:19 67.5 °F 66.2 °F 30.05 in Calm     96% 0 in meteobridge W/m2
07:24 67.5 °F 66.2 °F 30.05 in Calm     96% 0 in meteobridge W/m2
07:29 67.5 °F 66.2 °F 30.05 in Calm     96% 0 in meteobridge W/m2
07:34 67.5 °F 66.2 °F 30.05 in Calm     96% 0 in meteobridge W/m2
07:39 67.5 °F 66.2 °F 30.06 in Calm     96% 0 in meteobridge W/m2
07:44 67.5 °F 66.2 °F 30.05 in Calm     96% 0 in meteobridge W/m2
07:49 67.5 °F 66.2 °F 30.05 in Calm     96% 0 in meteobridge W/m2
07:54 67.6 °F 66.4 °F 30.05 in Calm     96% 0 in meteobridge W/m2
07:59 67.6 °F 66.4 °F 30.05 in Calm     96% 0 in meteobridge W/m2
08:04 67.6 °F 66.4 °F 30.05 in Calm     96% 0 in meteobridge W/m2
08:09 67.6 °F 66.7 °F 30.05 in Calm     97% 0 in meteobridge W/m2
08:14 67.6 °F 66.7 °F 30.05 in Calm     97% 0 in meteobridge W/m2
08:19 67.6 °F 66.7 °F 30.06 in Calm     97% 0 in meteobridge W/m2
08:24 67.8 °F 66.9 °F 30.06 in Calm     97% 0 in meteobridge W/m2
08:29 67.8 °F 66.9 °F 30.06 in Calm     97% 0 in meteobridge W/m2
08:34 67.8 °F 66.9 °F 30.06 in Calm     97% 0 in meteobridge W/m2
08:39 68 °F 66.7 °F 30.06 in Calm     96% 0 in meteobridge W/m2
08:44 68.2 °F 66.9 °F 30.06 in Calm     96% 0 in meteobridge W/m2
08:49 68.2 °F 66.9 °F 30.06 in Calm     96% 0 in meteobridge W/m2
08:54 68.4 °F 67.1 °F 30.06 in Calm     96% 0 in meteobridge W/m2
08:59 68.4 °F 67.5 °F 30.06 in Calm     97% 0 in meteobridge W/m2
09:04 68.4 °F 67.5 °F 30.06 in Calm     97% 0 in meteobridge W/m2
09:09 68.4 °F 67.5 °F 30.06 in Calm     97% 0 in meteobridge W/m2
09:14 68.5 °F 67.6 °F 30.06 in Calm     97% 0 in meteobridge W/m2
09:19 68.5 °F 67.6 °F 30.06 in Calm     97% 0 in meteobridge W/m2
09:24 68.7 °F 67.8 °F 30.06 in Calm     97% 0.01 in meteobridge W/m2
09:29 68.7 °F 67.8 °F 30.06 in Calm     97% 0.01 in meteobridge W/m2
09:34 69.1 °F 68.2 °F 30.06 in Calm     97% 0.01 in meteobridge W/m2
09:39 69.1 °F 68.2 °F 30.07 in Calm     97% 0.01 in meteobridge W/m2
09:44 69.3 °F 68.4 °F 30.06 in Calm     97% 0.01 in meteobridge W/m2
09:49 69.4 °F 68.5 °F 30.06 in Calm     97% 0.01 in meteobridge W/m2
09:54 69.8 °F 68.9 °F 30.06 in Calm     97% 0.01 in meteobridge W/m2
09:59 70 °F 69.1 °F 30.06 in Calm     97% 0.01 in meteobridge W/m2
10:04 70.2 °F 69.3 °F 30.06 in Calm     97% 0.01 in meteobridge W/m2
10:09 70.3 °F 69.4 °F 30.06 in Calm     97% 0.01 in meteobridge W/m2
10:14 70.3 °F 69.4 °F 30.06 in Calm   1 mph 97% 0.01 in meteobridge W/m2
10:19 70.5 °F 69.6 °F 30.06 in Calm   1 mph 97% 0.01 in meteobridge W/m2
10:24 70.9 °F 70 °F 30.06 in Calm   1 mph 97% 0 in meteobridge W/m2
10:29 71.2 °F 70.3 °F 30.06 in Calm     97% 0 in meteobridge W/m2
10:34 71.2 °F 70.3 °F 30.06 in Calm     97% 0 in meteobridge W/m2
10:39 71.4 °F 70.5 °F 30.06 in Calm   1 mph 97% 0 in meteobridge W/m2
10:44 71.2 °F 70.3 °F 30.07 in Calm     97% 0 in meteobridge W/m2
10:49 71.4 °F 70.5 °F 30.07 in Calm     97% 0 in meteobridge W/m2
10:54 71.4 °F 70.2 °F 30.07 in Calm     96% 0 in meteobridge W/m2
10:59 71.4 °F 70.2 °F 30.07 in Calm     96% 0 in meteobridge W/m2
11:04 71.8 °F 70.9 °F 30.07 in Calm     97% 0 in meteobridge W/m2
11:09 71.8 °F 70.9 °F 30.06 in Calm     97% 0 in meteobridge W/m2
11:14 72 °F 70.7 °F 30.06 in Calm     96% 0 in meteobridge W/m2
11:19 72.1 °F 70.9 °F 30.06 in Calm     96% 0 in meteobridge W/m2
11:24 72.1 °F 70.9 °F 30.06 in Calm     96% 0 in meteobridge W/m2
11:29 72.1 °F 70.9 °F 30.06 in Calm     96% 0 in meteobridge W/m2
11:34 72.5 °F 71.6 °F 30.06 in Calm     97% 0 in meteobridge W/m2
11:39 73 °F 71.8 °F 30.06 in Calm     96% 0 in meteobridge W/m2
11:44 72.9 °F 71.6 °F 30.06 in Calm   1 mph 96% 0 in meteobridge W/m2
11:49 72.9 °F 71.6 °F 30.05 in Calm     96% 0 in meteobridge W/m2
11:54 72.9 °F 71.6 °F 30.05 in Calm     96% 0 in meteobridge W/m2
11:59 73 °F 71.8 °F 30.05 in Calm     96% 0 in meteobridge W/m2
12:04 73.2 °F 72 °F 30.04 in Calm     96% 0 in meteobridge W/m2
12:09 73.2 °F 72 °F 30.04 in NW 0.9 mph 3 mph 96% 0 in meteobridge W/m2
12:14 73 °F 71.8 °F 30.04 in Calm     96% 0 in meteobridge W/m2
12:19 73.6 °F 72.3 °F 30.04 in Calm   1 mph 96% 0 in meteobridge W/m2
12:24 73.8 °F 72.5 °F 30.04 in Calm     96% 0 in meteobridge W/m2
12:29 73.9 °F 72.7 °F 30.04 in Calm     96% 0 in meteobridge W/m2
12:34 74.5 °F 73.2 °F 30.03 in Calm     96% 0 in meteobridge W/m2
12:39 74.8 °F 73.2 °F 30.03 in Calm     95% 0 in meteobridge W/m2
12:44 74.5 °F 73 °F 30.02 in Calm     95% 0 in meteobridge W/m2
12:49 74.5 °F 73 °F 30.02 in Calm     95% 0 in meteobridge W/m2
12:54 74.7 °F 73.2 °F 30.01 in Calm     95% 0 in meteobridge W/m2
12:59 74.8 °F 73 °F 30.02 in Calm     94% 0 in meteobridge W/m2
13:04 75 °F 73.2 °F 30.01 in Calm   3 mph 94% 0 in meteobridge W/m2
13:09 75 °F 72.9 °F 30.01 in Calm     93% 0 in meteobridge W/m2
13:14 75.2 °F 73 °F 30.01 in Calm     93% 0 in meteobridge W/m2
13:19 75.6 °F 73.4 °F 30.01 in Calm     93% 0 in meteobridge W/m2
13:24 75.9 °F 73.8 °F 30.01 in Calm     93% 0 in meteobridge W/m2
13:29 76.5 °F 73.9 °F 30.01 in Calm   1 mph 92% 0 in meteobridge W/m2
13:34 77.2 °F 74.7 °F 30.00 in Calm   1 mph 92% 0 in meteobridge W/m2
13:39 77.2 °F 74.3 °F 30.00 in Calm     91% 0 in meteobridge W/m2
13:44 77.2 °F 73.8 °F 30.00 in Calm   1 mph 89% 0 in meteobridge W/m2
13:49 77.2 °F 73.4 °F 30.00 in Calm   4 mph 88% 0 in meteobridge W/m2
13:54 77.4 °F 74.1 °F 30.00 in Calm     90% 0 in meteobridge W/m2
13:59 77.2 °F 74.3 °F 30.00 in Calm     91% 0 in meteobridge W/m2
14:04 77.4 °F 73.6 °F 29.99 in Calm   1 mph 88% 0 in meteobridge W/m2
14:09 77.9 °F 74.7 °F 29.99 in Calm     90% 0 in meteobridge W/m2
14:14 78.3 °F 74.1 °F 29.99 in NW 0.9 mph 4 mph 87% 0 in meteobridge W/m2
14:19 78.4 °F 73.9 °F 29.99 in Calm     86% 0 in meteobridge W/m2
14:24 79 °F 74.1 °F 29.99 in Calm   3 mph 85% 0 in meteobridge W/m2
14:29 79.3 °F 74.5 °F 29.99 in NNW 2 mph 2 mph 85% 0 in meteobridge W/m2
14:34 79.5 °F 74.7 °F 29.99 in Calm     85% 0 in meteobridge W/m2
14:39 79.5 °F 73.9 °F 29.98 in Calm     83% 0 in meteobridge W/m2
14:44 79.7 °F 74.1 °F 29.98 in NNW 0.9 mph 4 mph 83% 0 in meteobridge W/m2
14:49 80.1 °F 74.8 °F 29.98 in Calm   2 mph 84% 0 in meteobridge W/m2
14:54 80.2 °F 74.7 °F 29.97 in ENE 0.9 mph 1 mph 83% 0 in meteobridge W/m2
14:59 80.2 °F 73.6 °F 29.97 in Calm   1 mph 80% 0 in meteobridge W/m2
15:04 80.4 °F 73.8 °F 29.97 in NNW 0.9 mph 1 mph 80% 0 in meteobridge W/m2
15:09 80.6 °F 74.3 °F 29.97 in Calm     81% 0 in meteobridge W/m2
15:14 80.4 °F 73.8 °F 29.96 in Calm   1 mph 80% 0 in meteobridge W/m2
15:19 80.4 °F 74.1 °F 29.96 in Calm   3 mph 81% 0 in meteobridge W/m2
15:24 80.2 °F 74.3 °F 29.96 in Calm     82% 0 in meteobridge W/m2
15:29 80.1 °F 74.5 °F 29.96 in Calm     83% 0 in meteobridge W/m2
15:34 80.1 °F 73.8 °F 29.96 in Calm   1 mph 81% 0 in meteobridge W/m2
15:39 80.4 °F 74.8 °F 29.96 in Calm     83% 0 in meteobridge W/m2
15:44 80.2 °F 73.9 °F 29.96 in Calm   3 mph 81% 0 in meteobridge W/m2
15:49 80.2 °F 74.7 °F 29.95 in Calm     83% 0 in meteobridge W/m2
15:54 79.9 °F 74.3 °F 29.95 in Calm     83% 0 in meteobridge W/m2
15:59 79.9 °F 73.9 °F 29.95 in Calm   1 mph 82% 0 in meteobridge W/m2
16:04 80.2 °F 74.3 °F 29.95 in Calm     82% 0 in meteobridge W/m2
16:09 80.2 °F 74.7 °F 29.95 in Calm     83% 0 in meteobridge W/m2
16:14 80.2 °F 74.7 °F 29.94 in Calm     83% 0 in meteobridge W/m2
16:19 80.1 °F 74.1 °F 29.94 in Calm     82% 0 in meteobridge W/m2
16:24 80.2 °F 73.6 °F 29.94 in Calm   5 mph 80% 0 in meteobridge W/m2
16:29 80.6 °F 74.7 °F 29.94 in Calm   4 mph 82% 0 in meteobridge W/m2
16:34 80.8 °F 73.9 °F 29.94 in NW 0.9 mph 1 mph 80% 0 in meteobridge W/m2
16:39 80.8 °F 73.9 °F 29.93 in NNE 0.9 mph 1 mph 80% 0 in meteobridge W/m2
16:44 80.6 °F 73.9 °F 29.93 in Calm     80% 0 in meteobridge W/m2
16:49 80.4 °F 73.8 °F 29.93 in Calm     80% 0 in meteobridge W/m2
16:54 80.8 °F 75.2 °F 29.93 in Calm     83% 0 in meteobridge W/m2
16:59 80.8 °F 74.8 °F 29.93 in Calm   6 mph 82% 0 in meteobridge W/m2
17:04 81.1 °F 75.6 °F 29.93 in Calm     83% 0 in meteobridge W/m2
17:09 81.1 °F 75.2 °F 29.93 in Calm   1 mph 82% 0 in meteobridge W/m2
17:14 81 °F 75 °F 29.93 in Calm     82% 0 in meteobridge W/m2
17:19 80.6 °F 74.7 °F 29.93 in Calm     82% 0 in meteobridge W/m2
17:24 80.2 °F 74.7 °F 29.93 in Calm     83% 0 in meteobridge W/m2
17:29 80.1 °F 74.1 °F 29.93 in Calm   1 mph 82% 0 in meteobridge W/m2
17:34 80.4 °F 73.2 °F 29.93 in Calm   4 mph 79% 0 in meteobridge W/m2
17:39 80.8 °F 73.6 °F 29.92 in Calm   5 mph 79% 0 in meteobridge W/m2
17:44 81.1 °F 73.2 °F 29.92 in Calm     77% 0 in meteobridge W/m2
17:49 81.3 °F 75.7 °F 29.92 in Calm     83% 0 in meteobridge W/m2
17:54 81 °F 75 °F 29.92 in Calm     82% 0 in meteobridge W/m2
17:59 80.4 °F 73.2 °F 29.92 in Calm     79% 0 in meteobridge W/m2
18:04 80.4 °F 74.1 °F 29.92 in Calm     81% 0 in meteobridge W/m2
18:09 80.4 °F 73.8 °F 29.92 in Calm     80% 0 in meteobridge W/m2
18:14 80.2 °F 74.7 °F 29.92 in Calm     83% 0 in meteobridge W/m2
18:19 80.1 °F 74.5 °F 29.92 in Calm     83% 0 in meteobridge W/m2
18:24 80.1 °F 74.8 °F 29.92 in Calm     84% 0 in meteobridge W/m2
18:29 79.7 °F 74.5 °F 29.92 in Calm     84% 0 in meteobridge W/m2
18:34 79.3 °F 74.8 °F 29.93 in Calm     86% 0 in meteobridge W/m2
18:39 79.3 °F 75.2 °F 29.93 in Calm     87% 0 in meteobridge W/m2
18:44 79.2 °F 75 °F 29.93 in Calm     87% 0 in meteobridge W/m2
18:49 79 °F 74.5 °F 29.93 in Calm   1 mph 86% 0 in meteobridge W/m2
18:54 79 °F 74.8 °F 29.93 in Calm     87% 0 in meteobridge W/m2
18:59 78.6 °F 74.8 °F 29.93 in Calm     88% 0 in meteobridge W/m2
19:04 78.4 °F 74.7 °F 29.93 in Calm     88% 0 in meteobridge W/m2
19:09 78.4 °F 74.3 °F 29.93 in Calm     87% 0 in meteobridge W/m2
19:14 78.3 °F 74.7 °F 29.93 in Calm     89% 0 in meteobridge W/m2
19:19 78.1 °F 74.5 °F 29.93 in Calm     89% 0 in meteobridge W/m2
19:24 77.9 °F 74.5 °F 29.93 in Calm     89% 0 in meteobridge W/m2
19:29 77.7 °F 74.5 °F 29.93 in Calm     90% 0 in meteobridge W/m2
19:34 77.4 °F 74.1 °F 29.93 in Calm     90% 0 in meteobridge W/m2
19:39 77.2 °F 73.9 °F 29.93 in Calm     90% 0 in meteobridge W/m2
19:44 76.8 °F 73.6 °F 29.93 in Calm     90% 0 in meteobridge W/m2
19:49 76.6 °F 73.4 °F 29.93 in Calm     90% 0 in meteobridge W/m2
19:54 76.6 °F 73.4 °F 29.93 in Calm     90% 0 in meteobridge W/m2
19:59 76.3 °F 73.4 °F 29.93 in Calm     91% 0 in meteobridge W/m2
20:04 76.1 °F 73.2 °F 29.93 in Calm     91% 0 in meteobridge W/m2
20:09 75.9 °F 73 °F 29.93 in Calm     91% 0 in meteobridge W/m2
20:14 75.9 °F 73 °F 29.92 in Calm     91% 0 in meteobridge W/m2
20:19 75.7 °F 73.2 °F 29.92 in Calm     92% 0 in meteobridge W/m2
20:24 75.7 °F 73.2 °F 29.92 in Calm     92% 0 in meteobridge W/m2
20:29 75.6 °F 73 °F 29.93 in Calm     92% 0 in meteobridge W/m2
20:34 75.6 °F 73 °F 29.93 in Calm     92% 0 in meteobridge W/m2
20:39 75.4 °F 72.9 °F 29.93 in Calm     92% 0 in meteobridge W/m2
20:44 75.4 °F 73.2 °F 29.94 in NW 4 mph 4 mph 93% 0 in meteobridge W/m2
20:49 74.7 °F 71.8 °F 29.95 in Calm   3 mph 91% 0 in meteobridge W/m2
20:54 73.9 °F 70.9 °F 29.94 in Calm   5 mph 90% 0 in meteobridge W/m2
20:59 73.8 °F 70.7 °F 29.94 in Calm   3 mph 90% 0 in meteobridge W/m2
21:04 73.6 °F 70.7 °F 29.95 in Calm     91% 0 in meteobridge W/m2
21:09 73.2 °F 70.5 °F 29.95 in Calm     91% 0 in meteobridge W/m2
21:14 73 °F 70.3 °F 29.95 in Calm     91% 0 in meteobridge W/m2
21:19 72.9 °F 70.3 °F 29.96 in Calm     92% 0 in meteobridge W/m2
21:24 72.9 °F 70.3 °F 29.96 in Calm     92% 0 in meteobridge W/m2
21:29 72.7 °F 70.2 °F 29.96 in Calm     92% 0 in meteobridge W/m2
21:34 72.7 °F 70.5 °F 29.96 in Calm     93% 0 in meteobridge W/m2
21:39 72.5 °F 70.3 °F 29.96 in Calm     93% 0 in meteobridge W/m2
21:44 72.3 °F 70.2 °F 29.96 in Calm     93% 0 in meteobridge W/m2
21:49 72.3 °F 70.2 °F 29.97 in Calm     93% 0 in meteobridge W/m2
21:54 72.1 °F 70 °F 29.97 in Calm     93% 0 in meteobridge W/m2
21:59 72.1 °F 70 °F 29.97 in Calm     93% 0 in meteobridge W/m2
22:04 72.1 °F 70 °F 29.97 in Calm     93% 0 in meteobridge W/m2
22:09 72.1 °F 70.3 °F 29.97 in Calm     94% 0 in meteobridge W/m2
22:14 72 °F 69.8 °F 29.97 in Calm     93% 0 in meteobridge W/m2
22:19 72 °F 69.8 °F 29.98 in Calm     93% 0 in meteobridge W/m2
22:24 72 °F 70.2 °F 29.98 in Calm     94% 0 in meteobridge W/m2
22:29 72 °F 70.2 °F 29.98 in Calm     94% 0 in meteobridge W/m2
22:34 72 °F 70.2 °F 29.98 in Calm     94% 0 in meteobridge W/m2
22:39 71.8 °F 70 °F 29.98 in Calm     94% 0 in meteobridge W/m2
22:44 71.8 °F 70 °F 29.98 in Calm     94% 0 in meteobridge W/m2
22:49 71.4 °F 69.6 °F 29.98 in Calm     94% 0 in meteobridge W/m2
22:54 71.4 °F 69.6 °F 29.98 in Calm     94% 0 in meteobridge W/m2
22:59 71.2 °F 69.4 °F 29.98 in Calm     94% 0 in meteobridge W/m2
23:04 71.2 °F 69.4 °F 29.98 in Calm     94% 0 in meteobridge W/m2
23:09 71.1 °F 69.3 °F 29.98 in Calm     94% 0 in meteobridge W/m2
23:14 70.9 °F 69.1 °F 29.98 in Calm     94% 0 in meteobridge W/m2
23:19 70.9 °F 69.1 °F 29.98 in Calm     94% 0 in meteobridge W/m2
23:24 70.7 °F 68.9 °F 29.98 in Calm     94% 0 in meteobridge W/m2
23:29 70.7 °F 68.9 °F 29.98 in Calm     94% 0 in meteobridge W/m2
23:34 70.7 °F 68.9 °F 29.98 in Calm     94% 0 in meteobridge W/m2
23:39 70.5 °F 68.7 °F 29.98 in Calm     94% 0 in meteobridge W/m2
23:44 70.5 °F 68.7 °F 29.98 in Calm     94% 0 in meteobridge W/m2
23:49 70.5 °F 69.1 °F 29.98 in Calm     95% 0 in meteobridge W/m2
23:54 70.5 °F 69.1 °F 29.98 in Calm   1 mph 95% 0 in meteobridge W/m2
23:59 70.5 °F 69.1 °F 29.98 in Calm     95% 0.01 in meteobridge W/m2
EllijayWeather
Compliments of Weather Underground - 2.5 mb